GHB - Wetterstation

--- Lilienthal-Gleiter-Unterfranken e.V. --- (Impressum)
-> Windverlauf / Grafik
-> Barometerverlauf / Grafik
-> Wetter Links
-> WS GHB auf Windy



Bitte Uhrzeit beachten ob Daten aktuell sind!

Anzeige der letzten 100 Messwerte (~8 Stunden)
Datum Zeit Wind Richtung Richtung Böen Temperatur Feuchte Luftdruck
11.05.2021 16:06:57 1.34 km/h 306.5 ° NW 3.24 km/h 14.4 °C 54 % 1007.82 hPa
11.05.2021 16:02:14 0.53 km/h 280.4 ° W 3.24 km/h 14 °C 54 % 1007.82 hPa
11.05.2021 15:57:31 0.36 km/h 324.8 ° NW 1.44 km/h 13.4 °C 54.5 % 1007.82 hPa
11.05.2021 15:52:48 1.4 km/h 325.4 ° NW 3.96 km/h 13 °C 54 % 1007.92 hPa
11.05.2021 15:48:05 0.83 km/h 2 ° N 2.52 km/h 12.8 °C 54 % 1008.02 hPa
11.05.2021 15:43:22 1.72 km/h 320.6 ° NW 3.24 km/h 12.7 °C 54 % 1008.02 hPa
11.05.2021 15:38:39 2.41 km/h 336.6 ° N-NW 5.76 km/h 12.8 °C 53.5 % 1008.12 hPa
11.05.2021 15:33:56 4.55 km/h 326.3 ° N-NW 9 km/h 13.1 °C 53 % 1008.02 hPa
11.05.2021 15:29:13 4.36 km/h 323.8 ° NW 7.56 km/h 13.6 °C 52.5 % 1008.02 hPa
11.05.2021 15:24:29 3.89 km/h 283.2 ° W-NW 11.16 km/h 14.1 °C 52.5 % 1008.12 hPa
11.05.2021 15:19:46 1.34 km/h 281.1 ° W 2.52 km/h 14.4 °C 52 % 1008.12 hPa
11.05.2021 15:15:03 3.91 km/h 309.1 ° NW 6.48 km/h 14.7 °C 53 % 1007.92 hPa
11.05.2021 15:10:20 4.44 km/h 287.6 ° W-NW 7.2 km/h 15 °C 52.5 % 1008.02 hPa
11.05.2021 15:05:36 2.23 km/h 342.5 ° N-NW 4.68 km/h 15.3 °C 52 % 1007.92 hPa
11.05.2021 15:00:53 3.4 km/h 336.4 ° N-NW 8.64 km/h 15.7 °C 52 % 1007.82 hPa
11.05.2021 14:56:09 0.6 km/h 60.5 ° O-NO 1.8 km/h 16.1 °C 52 % 1007.82 hPa
11.05.2021 14:51:26 0.53 km/h 277.7 ° W 1.8 km/h 16.4 °C 51.5 % 1007.62 hPa
11.05.2021 14:46:42 1.79 km/h 232.5 ° SW 8.28 km/h 16.6 °C 51.5 % 1007.62 hPa
11.05.2021 14:41:58 4.46 km/h 332 ° N-NW 8.64 km/h 16.8 °C 51.5 % 1007.52 hPa
11.05.2021 14:37:15 4.18 km/h 298.9 ° W-NW 7.56 km/h 17.1 °C 50.5 % 1007.42 hPa
11.05.2021 14:32:31 2.79 km/h 303.4 ° W-NW 7.56 km/h 17.5 °C 52 % 1007.32 hPa
11.05.2021 14:27:47 2.19 km/h 258.8 ° W 2.88 km/h 17.4 °C 52 % 1007.42 hPa
11.05.2021 14:23:04 2.59 km/h 245.1 ° W-SW 9 km/h 17.1 °C 51.5 % 1007.32 hPa
11.05.2021 14:18:20 2.13 km/h 287 ° W-NW 6.12 km/h 16.8 °C 51.5 % 1007.32 hPa
11.05.2021 14:13:37 2.49 km/h 301.3 ° W-NW 5.4 km/h 16.7 °C 51.5 % 1007.12 hPa
11.05.2021 14:08:53 3.74 km/h 308.8 ° NW 7.92 km/h 16.8 °C 51.5 % 1007.12 hPa
11.05.2021 14:04:10 1.53 km/h 256.5 ° W-SW 3.96 km/h 16.7 °C 52 % 1007.02 hPa
11.05.2021 13:59:26 4.79 km/h 310.5 ° NW 9.36 km/h 16.5 °C 52 % 1007.02 hPa
11.05.2021 13:54:43 2.07 km/h 9.4 ° N 6.84 km/h 16.5 °C 51.5 % 1007.12 hPa
11.05.2021 13:49:59 2.81 km/h 290.3 ° W-NW 8.64 km/h 16.5 °C 51.5 % 1007.12 hPa
11.05.2021 13:45:15 2.73 km/h 340.6 ° N-NW 6.48 km/h 16.5 °C 51.5 % 1007.12 hPa
11.05.2021 13:40:32 3.57 km/h 322.3 ° NW 7.2 km/h 16.4 °C 51.5 % 1007.12 hPa
11.05.2021 13:35:48 3.35 km/h 323.4 ° NW 7.92 km/h 16.5 °C 51.5 % 1007.22 hPa
11.05.2021 13:31:05 2.05 km/h 312.8 ° NW 6.48 km/h 16.5 °C 52 % 1007.32 hPa
11.05.2021 13:26:21 4.08 km/h 293.9 ° W-NW 9.36 km/h 16.3 °C 52.5 % 1007.32 hPa
11.05.2021 13:21:38 1.65 km/h 329 ° N-NW 7.56 km/h 16.2 °C 52 % 1007.22 hPa
11.05.2021 13:13:07 3.57 km/h 238.6 ° W-SW 7.56 km/h 16.5 °C 51.5 % 1007.12 hPa
11.05.2021 13:08:23 2.44 km/h 336.6 ° N-NW 5.4 km/h 16.7 °C 51.5 % 1007.02 hPa
11.05.2021 13:03:40 3.44 km/h 316.8 ° NW 6.84 km/h 17 °C 51 % 1007.02 hPa
11.05.2021 12:58:56 0.57 km/h 242.6 ° W-SW 1.44 km/h 17.3 °C 52 % 1007.22 hPa
11.05.2021 12:54:12 0 km/h 323.8 ° NW 0 km/h 17 °C 51.5 % 1007.22 hPa
11.05.2021 12:49:29 2.55 km/h 300.6 ° W-NW 6.48 km/h 16.8 °C 51.5 % 1007.22 hPa
11.05.2021 12:44:45 2.37 km/h 224.5 ° SW 4.68 km/h 16.7 °C 51.5 % 1007.32 hPa
11.05.2021 12:40:02 2.9 km/h 274.1 ° W 5.4 km/h 16.4 °C 51.5 % 1007.32 hPa
11.05.2021 12:35:18 5.55 km/h 4.6 ° N 9 km/h 16.2 °C 51.5 % 1007.22 hPa
11.05.2021 12:30:35 1.14 km/h 237.1 ° W-SW 3.24 km/h 16.1 °C 52 % 1007.62 hPa
11.05.2021 12:25:51 1.47 km/h 232.5 ° SW 5.04 km/h 15.9 °C 52 % 1007.62 hPa
11.05.2021 12:21:08 3.72 km/h 308.2 ° NW 7.56 km/h 15.7 °C 52 % 1007.62 hPa
11.05.2021 12:16:25 1.77 km/h 347.3 ° N-NW 5.76 km/h 15.5 °C 52.5 % 1007.72 hPa
11.05.2021 12:11:41 1.48 km/h 0.8 ° N 3.96 km/h 15.4 °C 52 % 1007.92 hPa
11.05.2021 12:06:58 1.3 km/h 323.6 ° NW 4.68 km/h 15.3 °C 52.5 % 1007.92 hPa
11.05.2021 12:02:15 3.81 km/h 343.9 ° N-NW 6.48 km/h 14.9 °C 52.5 % 1007.82 hPa
11.05.2021 11:57:31 0.58 km/h 277.7 ° W 1.44 km/h 14.8 °C 52 % 1007.72 hPa
11.05.2021 11:52:48 1.38 km/h 14.9 ° N-NO 3.96 km/h 14.6 °C 52.5 % 1007.62 hPa
11.05.2021 11:48:05 0.91 km/h 19.5 ° N-NO 4.32 km/h 14.4 °C 52.5 % 1007.72 hPa
11.05.2021 11:43:22 0.27 km/h 288.4 ° W-NW 1.8 km/h 14.3 °C 52.5 % 1007.72 hPa
11.05.2021 11:38:38 0 km/h 178 ° S 0 km/h 14.1 °C 52.5 % 1007.72 hPa
11.05.2021 11:33:55 1.63 km/h 235 ° SW 3.96 km/h 13.9 °C 52.5 % 1007.62 hPa
11.05.2021 11:29:12 0.96 km/h 251.2 ° W-SW 2.16 km/h 13.8 °C 52.5 % 1007.42 hPa
11.05.2021 11:24:29 0.64 km/h 289.7 ° W-NW 2.52 km/h 13.8 °C 52 % 1007.42 hPa
11.05.2021 11:19:46 2.76 km/h 331.3 ° N-NW 7.2 km/h 13.8 °C 52.5 % 1007.22 hPa
11.05.2021 11:15:02 2.42 km/h 325.9 ° NW 7.56 km/h 14 °C 52.5 % 1006.92 hPa
11.05.2021 11:10:19 1.94 km/h 323.1 ° NW 5.04 km/h 14.1 °C 52.5 % 1006.92 hPa
11.05.2021 11:05:36 4.49 km/h 18.2 ° N-NO 8.64 km/h 14.2 °C 52.5 % 1007.02 hPa
11.05.2021 11:00:53 3.24 km/h 289.3 ° W-NW 10.44 km/h 14.3 °C 52 % 1007.32 hPa
11.05.2021 10:56:09 2.12 km/h 337.4 ° N-NW 11.16 km/h 14.5 °C 52 % 1007.32 hPa
11.05.2021 10:51:26 0.09 km/h 257.7 ° W-SW 0.36 km/h 14.4 °C 52.5 % 1007.42 hPa
11.05.2021 10:46:43 4.03 km/h 301.1 ° W-NW 7.56 km/h 14.3 °C 52 % 1007.32 hPa
11.05.2021 10:42:00 2.64 km/h 307.8 ° NW 5.04 km/h 14.3 °C 52.5 % 1007.22 hPa
11.05.2021 10:37:16 2.3 km/h 341.9 ° N-NW 7.56 km/h 13.9 °C 52.5 % 1006.92 hPa
11.05.2021 10:32:34 2.24 km/h 341 ° N-NW 5.76 km/h 13.6 °C 52.5 % 1007.02 hPa
11.05.2021 10:27:50 1.39 km/h 318.5 ° NW 3.6 km/h 13.6 °C 52.5 % 1007.32 hPa
11.05.2021 10:23:07 2.1 km/h 2.9 ° N 6.84 km/h 13.6 °C 52.5 % 1007.22 hPa
11.05.2021 10:18:24 0.89 km/h 293.9 ° W-NW 2.16 km/h 13.6 °C 52.5 % 1007.02 hPa
11.05.2021 10:13:41 0.5 km/h 276.2 ° W 1.44 km/h 13.7 °C 52.5 % 1007.12 hPa
11.05.2021 10:03:10 0.62 km/h 352.8 ° N 2.16 km/h 13.5 °C 53 % 1007.12 hPa
11.05.2021 09:58:27 0.99 km/h 333 ° N-NW 7.2 km/h 13.1 °C 52 % 1007.22 hPa
11.05.2021 09:53:44 3.29 km/h 287.8 ° W-NW 7.2 km/h 12.9 °C 53 % 1007.22 hPa
11.05.2021 09:49:01 0.59 km/h 264.9 ° W 2.52 km/h 12.8 °C 53 % 1007.32 hPa
11.05.2021 09:44:18 1.61 km/h 326.3 ° N-NW 3.6 km/h 12.7 °C 53 % 1007.22 hPa
11.05.2021 09:39:35 2.08 km/h 344.2 ° N-NW 4.32 km/h 12.7 °C 52.5 % 1007.42 hPa
11.05.2021 09:34:52 3.22 km/h 354.9 ° N 8.64 km/h 12.8 °C 52.5 % 1007.52 hPa
11.05.2021 09:30:09 0.66 km/h 240.7 ° W-SW 2.52 km/h 12.9 °C 52.5 % 1007.52 hPa
11.05.2021 09:25:26 3.85 km/h 21.2 ° N-NO 10.44 km/h 12.8 °C 52 % 1007.52 hPa
11.05.2021 09:20:43 1.34 km/h 341 ° N-NW 3.96 km/h 12.8 °C 53 % 1007.52 hPa
11.05.2021 09:16:00 4.37 km/h 335.3 ° N-NW 7.92 km/h 12.6 °C 52.5 % 1007.52 hPa
11.05.2021 09:11:17 2.1 km/h 47.7 ° NO 6.84 km/h 12.4 °C 53 % 1007.52 hPa
11.05.2021 09:06:34 0.24 km/h 158.9 ° S-SO 1.08 km/h 12.1 °C 53 % 1007.72 hPa
11.05.2021 09:01:51 0.51 km/h 0.4 ° N 2.88 km/h 11.9 °C 53 % 1008.02 hPa
11.05.2021 08:57:08 1.18 km/h 310.5 ° NW 2.88 km/h 11.7 °C 53 % 1007.92 hPa
11.05.2021 08:52:25 0.59 km/h 321.2 ° NW 3.24 km/h 11.7 °C 53 % 1007.82 hPa
11.05.2021 08:47:43 2.65 km/h 336.4 ° N-NW 5.76 km/h 11.6 °C 53 % 1007.82 hPa
11.05.2021 08:43:00 2.45 km/h 309.1 ° NW 5.04 km/h 11.7 °C 52.5 % 1008.02 hPa
11.05.2021 08:38:17 1.45 km/h 304.4 ° NW 6.12 km/h 11.8 °C 53 % 1007.92 hPa
11.05.2021 08:33:34 1.26 km/h 11.7 ° N-NO 2.88 km/h 11.8 °C 53 % 1007.92 hPa
11.05.2021 08:28:52 0.36 km/h 334.9 ° N-NW 1.8 km/h 11.9 °C 53 % 1007.72 hPa
11.05.2021 08:24:09 0.91 km/h 328.2 ° N-NW 2.88 km/h 11.9 °C 52.5 % 1007.62 hPa
11.05.2021 08:19:26 1.13 km/h 310.5 ° NW 3.24 km/h 11.9 °C 53 % 1007.62 hPa
11.05.2021 08:14:43 3.12 km/h 342.7 ° N-NW 6.84 km/h 11.9 °C 53 % 1007.62 hPa
11.05.2021 08:10:00 0.31 km/h 358.7 ° N 3.24 km/h 11.8 °C 53.5 % 1007.62 hPa